Time;durP1;ratioP1;P1;durP2;ratioP2;P2;SDS_P1;SDS_P2;PMS_P1;PMS_P2;Temp;Humidity;BMP_temperature;BMP_pressure;BME280_temperature;BME280_humidity;BME280_pressure;Samples;Min_cycle;Max_cycle;Signal;HPM_P1;HPM_P2
2023/10/02 08:30:59;;;;;;;11.10;3.40;;;;;;;17.56;100.00;101804.54;104144;1281;601695;-77
2023/10/02 08:33:33;;;;;;;8.30;2.80;;;;;;;17.60;100.00;101792.19;106862;1251;62422;-78
2023/10/02 08:36:21;;;;;;;8.90;3.00;;;;;;;18.06;100.00;101803.48;107053;1248;60608;-76
2023/10/02 08:38:50;;;;;;;12.80;3.00;;;;;;;18.17;100.00;101800.94;106875;1251;62824;-78
2023/10/02 08:41:43;;;;;;;9.20;2.90;;;;;;;18.32;100.00;101800.32;106704;1251;72390;-77
2023/10/02 08:44:14;;;;;;;10.40;3.20;;;;;;;18.33;100.00;101802.19;106569;1254;225706;-79
2023/10/02 08:46:45;;;;;;;7.40;3.00;;;;;;;18.19;100.00;101802.84;106834;1248;73084;-78
2023/10/02 08:49:16;;;;;;;7.10;2.90;;;;;;;18.13;100.00;101803.04;106767;1258;62052;-79
2023/10/02 08:51:51;;;;;;;8.00;2.90;;;;;;;17.95;100.00;101806.16;106973;1251;58987;-78
2023/10/02 08:54:27;;;;;;;8.60;3.90;;;;;;;18.03;100.00;101802.11;106792;1251;71870;-78
2023/10/02 08:57:08;;;;;;;9.00;3.60;;;;;;;18.12;100.00;101801.31;106839;1250;62181;-77
2023/10/02 08:59:38;;;;;;;10.00;3.10;;;;;;;18.27;100.00;101804.25;106775;1251;60499;-77
2023/10/02 09:02:16;;;;;;;13.90;7.30;;;;;;;18.22;100.00;101801.17;106707;1250;73136;-78
2023/10/02 09:04:51;;;;;;;7.20;3.30;;;;;;;18.12;100.00;101799.02;107045;1245;58472;-78
2023/10/02 09:10:30;;;;;;;8.20;2.80;;;;;;;18.18;99.00;101798.88;107036;1247;62171;-81
2023/10/02 09:13:17;;;;;;;9.90;3.10;;;;;;;18.09;98.69;101796.52;107158;1247;63689;-80
2023/10/02 09:15:53;;;;;;;7.00;2.90;;;;;;;17.97;99.62;101802.50;107005;1247;59256;-79
2023/10/02 09:19:28;;;;;;;;;;;;;;;;;;;;;
2023/10/02 09:21:47;;;;;;;7.80;2.40;;;;;;;17.91;98.89;101801.74;106916;1245;60330;-77
2023/10/02 09:24:23;;;;;;;12.80;2.60;;;;;;;17.99;97.38;101799.86;107021;1243;59080;-77
2023/10/02 09:26:57;;;;;;;7.30;2.30;;;;;;;18.09;97.16;101798.43;106846;1243;72557;-78
2023/10/02 09:29:27;;;;;;;7.50;2.50;;;;;;;18.19;97.59;101798.30;107108;1247;61397;-78
2023/10/02 09:31:56;;;;;;;8.50;2.60;;;;;;;18.26;96.80;101790.79;107128;1245;59832;-78
2023/10/02 09:34:28;;;;;;;13.10;3.00;;;;;;;18.18;96.78;101796.41;107030;1249;73055;-78
2023/10/02 09:37:26;;;;;;;8.10;2.70;;;;;;;17.98;97.27;101798.17;107119;1247;60350;-79
2023/10/02 09:40:16;;;;;;;6.70;2.60;;;;;;;17.90;97.91;101791.67;107011;1247;60906;-79
2023/10/02 09:42:48;;;;;;;8.00;5.80;;;;;;;17.99;98.13;101788.05;107134;1247;61820;-78
2023/10/02 09:45:31;;;;;;;13.10;6.90;;;;;;;18.12;97.80;101794.69;107213;1255;61624;-78
2023/10/02 09:48:46;;;;;;;14.60;8.20;;;;;;;18.15;97.64;101792.47;107164;1244;70517;-78
2023/10/02 09:51:06;;;;;;;6.10;2.70;;;;;;;18.22;96.72;101794.47;107062;1243;73649;-76
2023/10/02 09:53:42;;;;;;;8.40;2.60;;;;;;;18.31;96.50;101797.73;107200;1245;58183;-78
2023/10/02 09:56:18;;;;;;;9.00;3.00;;;;;;;18.32;96.54;101793.80;106891;1248;61078;-80
2023/10/02 09:59:12;;;;;;;9.20;3.10;;;;;;;18.47;96.48;101795.41;106671;1256;72788;-78
2023/10/02 10:02:08;;;;;;;5.40;2.50;;;;;;;18.67;93.81;101797.42;107069;1247;71203;-77
2023/10/02 10:07:52;;;;;;;8.00;3.00;;;;;;;18.36;94.67;101793.23;106938;1247;62395;-78
2023/10/02 10:13:46;;;;;;;10.30;2.70;;;;;;;18.80;90.42;101786.90;106916;1247;59121;-80
2023/10/02 10:16:34;;;;;;;6.50;2.60;;;;;;;18.78;90.64;101788.63;106732;1250;63035;-78
2023/10/02 10:21:56;;;;;;;8.00;2.80;;;;;;;18.44;92.86;101786.88;107061;1247;59645;-78
2023/10/02 10:27:41;;;;;;;7.90;2.70;;;;;;;19.07;91.51;101774.16;107205;1245;57959;-81
2023/10/02 10:30:24;;;;;;;5.30;2.50;;;;;;;19.56;88.57;101768.55;107178;1245;57315;-82
2023/10/02 10:33:15;;;;;;;6.30;2.30;;;;;;;19.96;86.92;101767.63;107117;1243;72701;-81
2023/10/02 10:36:18;;;;;;;6.70;2.60;;;;;;;19.98;85.40;101771.88;107094;1254;61852;-82
2023/10/02 10:38:49;;;;;;;8.00;2.40;;;;;;;19.54;85.28;101770.49;107332;1256;59258;-82
2023/10/02 10:41:38;;;;;;;6.70;2.60;;;;;;;19.58;84.28;101770.84;107187;1246;63246;-81
2023/10/02 10:44:13;;;;;;;5.50;2.40;;;;;;;19.38;83.93;101770.27;107077;1250;58273;-81
2023/10/02 10:46:47;;;;;;;7.50;2.60;;;;;;;19.24;83.61;101763.08;107191;1247;58996;-82
2023/10/02 10:49:23;;;;;;;7.10;2.50;;;;;;;19.01;84.99;101763.75;107296;1256;61426;-81
2023/10/02 10:51:55;;;;;;;5.00;2.20;;;;;;;19.30;85.26;101758.99;107239;1244;61013;-83
2023/10/02 10:54:25;;;;;;;8.40;3.10;;;;;;;19.72;83.40;101754.30;107261;1248;60057;-80
2023/10/02 10:57:22;;;;;;;7.50;2.30;;;;;;;20.03;81.01;101752.11;107196;1247;63443;-83
2023/10/02 11:00:25;;;;;;;8.60;2.70;;;;;;;20.23;78.85;101747.46;107124;1250;61330;-82
2023/10/02 11:03:19;;;;;;;;;;;;;;;20.08;77.85;101743.79;107170;1250;57598;-83
2023/10/02 11:05:49;;;;;;;8.90;2.40;;;;;;;19.87;75.93;101749.02;107057;1243;71272;-82
2023/10/02 11:08:28;;;;;;;8.10;2.30;;;;;;;19.67;76.53;101747.05;107235;1254;61954;-81
2023/10/02 11:11:00;;;;;;;7.10;2.60;;;;;;;19.59;77.50;101739.46;107169;1247;70656;-82
2023/10/02 11:16:30;;;;;;;7.10;2.70;;;;;;;19.72;77.63;101723.61;107254;1247;58944;-82
2023/10/02 11:22:15;;;;;;;8.40;2.50;;;;;;;19.91;72.36;101733.48;107515;1247;61289;-81
2023/10/02 11:24:54;;;;;;;7.60;2.50;;;;;;;19.91;67.13;101731.52;107201;1256;72141;-80
2023/10/02 11:27:24;;;;;;;7.80;2.50;;;;;;;19.75;67.87;101727.77;107274;1245;60001;-78
2023/10/02 11:30:01;;;;;;;7.90;3.00;;;;;;;20.09;69.08;101727.08;107120;1246;63174;-82
2023/10/02 11:32:54;;;;;;;8.30;2.50;;;;;;;20.41;70.27;101721.34;107192;1247;60279;-79
2023/10/02 11:35:37;;;;;;;9.10;2.60;;;;;;;20.91;70.65;101715.70;107180;1248;61025;-80
2023/10/02 11:38:07;;;;;;;9.90;2.60;;;;;;;21.37;69.48;101708.90;107198;1244;63827;-80
2023/10/02 11:40:43;;;;;;;13.20;2.20;;;;;;;21.94;66.26;101709.60;107230;1247;62060;-78
2023/10/02 11:43:15;;;;;;;8.20;2.90;;;;;;;22.27;63.16;101715.66;107247;1247;60043;-80
2023/10/02 11:45:47;;;;;;;6.40;2.30;;;;;;;22.45;62.71;101719.55;107085;1256;62420;-81
2023/10/02 11:48:17;;;;;;;;;;;;;;;22.29;63.93;101710.46;107283;1248;61357;-80
2023/10/02 11:50:47;;;;;;;6.60;2.80;;;;;;;21.86;65.33;101717.98;107279;1243;61478;-83
2023/10/02 11:53:15;;;;;;;10.20;2.90;;;;;;;21.42;64.36;101717.30;107195;1247;72331;-83
2023/10/02 11:55:44;;;;;;;8.00;3.00;;;;;;;21.05;65.16;101711.46;107123;1247;72479;-82
2023/10/02 11:58:30;;;;;;;8.80;2.60;;;;;;;21.20;64.57;101708.72;104637;1276;600023;-79
2023/10/02 12:01:04;;;;;;;6.10;2.50;;;;;;;21.81;62.62;101703.08;106207;1261;60702;-82
2023/10/02 12:03:36;;;;;;;7.00;2.80;;;;;;;22.09;61.10;101706.70;106335;1258;58975;-80
2023/10/02 12:06:14;;;;;;;7.80;3.10;;;;;;;21.80;61.10;101706.76;107087;1260;60524;-81
2023/10/02 12:08:44;;;;;;;7.50;3.00;;;;;;;21.50;62.63;101712.94;107092;1247;71141;-82
2023/10/02 12:11:16;;;;;;;10.00;3.00;;;;;;;21.28;63.96;101713.92;106570;1251;350099;-82
2023/10/02 12:13:45;;;;;;;10.70;2.90;;;;;;;21.14;63.83;101707.50;107023;1251;74274;-79
2023/10/02 12:16:15;;;;;;;6.80;2.80;;;;;;;21.34;62.96;101710.28;106986;1251;57613;-80
2023/10/02 12:18:44;;;;;;;10.10;2.70;;;;;;;21.77;61.58;101703.66;107218;1256;61234;-80
2023/10/02 12:21:14;;;;;;;8.80;2.60;;;;;;;21.68;61.62;101710.83;107243;1258;71716;-80
2023/10/02 12:23:44;;;;;;;5.70;2.40;;;;;;;21.43;61.13;101710.10;107177;1256;62083;-81
2023/10/02 12:26:32;;;;;;;8.20;3.50;;;;;;;20.98;61.83;101713.06;107123;1258;60654;-82
2023/10/02 12:29:02;;;;;;;7.80;2.60;;;;;;;21.43;60.80;101712.34;107008;1258;63544;-80
2023/10/02 12:31:36;;;;;;;7.40;2.80;;;;;;;21.86;58.87;101709.33;107059;1258;62006;-81
2023/10/02 12:34:07;;;;;;;8.30;3.50;;;;;;;22.43;57.54;101708.29;107315;1255;58400;-80
2023/10/02 12:36:36;;;;;;;10.40;3.20;;;;;;;22.67;54.45;101710.31;107394;1251;62100;-82
2023/10/02 12:39:09;;;;;;;6.80;2.80;;;;;;;22.62;51.97;101714.51;107537;1245;60706;-80
2023/10/02 12:41:43;;;;;;;6.90;3.00;;;;;;;22.05;53.25;101713.04;107388;1253;59949;-82
2023/10/02 12:44:13;;;;;;;7.00;2.90;;;;;;;21.65;54.34;101709.16;107249;1245;73131;-80
2023/10/02 12:46:50;;;;;;;7.40;3.00;;;;;;;21.30;55.89;101707.33;107577;1252;57486;-79
2023/10/02 12:49:23;;;;;;;7.40;3.10;;;;;;;21.49;56.35;101708.61;107250;1252;62217;-79
2023/10/02 12:51:53;;;;;;;5.90;2.60;;;;;;;21.54;55.53;101703.45;107551;1249;72526;-80
2023/10/02 12:54:23;;;;;;;7.90;2.60;;;;;;;21.52;55.07;101713.95;107490;1245;70342;-82
2023/10/02 12:56:53;;;;;;;6.90;2.50;;;;;;;21.54;55.07;101713.42;107435;1245;60013;-82
2023/10/02 12:59:23;;;;;;;6.70;3.00;;;;;;;21.65;54.94;101713.35;107283;1249;62475;-82
2023/10/02 13:01:53;;;;;;;7.30;2.80;;;;;;;21.15;56.01;101710.96;107467;1245;60898;-82
2023/10/02 13:04:21;;;;;;;7.80;2.80;;;;;;;21.26;56.22;101707.93;107483;1251;60802;-83
2023/10/02 13:06:51;;;;;;;6.40;3.00;;;;;;;21.28;55.33;101711.45;107203;1247;63693;-82
2023/10/02 13:09:20;;;;;;;7.00;2.60;;;;;;;21.24;55.53;101708.31;107378;1245;60874;-81
2023/10/02 13:11:49;;;;;;;8.40;2.80;;;;;;;21.73;55.43;101705.13;107212;1253;69683;-81
2023/10/02 13:14:17;;;;;;;5.60;2.60;;;;;;;22.16;53.86;101705.33;107243;1245;74129;-83
2023/10/02 13:16:51;;;;;;;8.10;2.50;;;;;;;22.63;53.18;101694.23;107218;1244;60751;-82
2023/10/02 13:19:20;;;;;;;7.50;2.50;;;;;;;22.89;51.82;101701.20;107203;1248;57501;-83
2023/10/02 13:21:52;;;;;;;6.50;2.50;;;;;;;22.67;51.65;101700.17;107236;1247;61395;-81
2023/10/02 13:24:23;;;;;;;;;;;;;;;22.80;50.46;101693.80;107283;1245;71468;-83
2023/10/02 13:26:53;;;;;;;7.50;2.60;;;;;;;22.21;50.84;101695.38;107189;1252;69631;-80
2023/10/02 13:29:24;;;;;;;10.40;2.90;;;;;;;21.51;54.57;101693.83;107159;1255;73529;-80
2023/10/02 13:31:53;;;;;;;6.10;2.50;;;;;;;22.18;53.29;101695.66;107206;1246;59072;-82
2023/10/02 13:34:22;;;;;;;5.80;2.80;;;;;;;22.65;51.67;101687.94;107187;1249;57571;-81
2023/10/02 13:36:51;;;;;;;10.10;3.10;;;;;;;23.00;50.84;101686.27;107088;1255;71156;-82
2023/10/02 13:39:22;;;;;;;7.50;2.60;;;;;;;23.20;50.62;101685.85;107080;1255;72612;-83
2023/10/02 13:41:52;;;;;;;7.00;2.80;;;;;;;23.34;50.11;101689.28;107160;1245;60291;-81
2023/10/02 13:44:23;;;;;;;5.50;2.20;;;;;;;23.40;50.23;101680.82;107229;1246;73058;-81
2023/10/02 13:46:51;;;;;;;6.70;2.70;;;;;;;23.19;49.79;101683.98;107191;1253;61415;-82
2023/10/02 13:49:21;;;;;;;7.80;2.70;;;;;;;22.99;50.92;101689.04;107369;1246;60927;-82
2023/10/02 13:51:50;;;;;;;9.30;2.70;;;;;;;23.00;49.81;101698.52;107377;1244;72994;-80
2023/10/02 13:54:18;;;;;;;7.00;3.00;;;;;;;23.20;49.04;101697.05;107523;1255;72511;-80
2023/10/02 13:56:47;;;;;;;7.40;2.70;;;;;;;23.08;48.47;101691.31;107635;1253;60446;-81
2023/10/02 13:59:16;;;;;;;10.00;3.00;;;;;;;22.64;49.55;101690.77;107401;1248;73912;-81
2023/10/02 14:01:46;;;;;;;10.60;3.00;;;;;;;23.09;48.50;101690.30;107346;1255;58981;-81
2023/10/02 14:04:15;;;;;;;10.40;3.10;;;;;;;22.98;49.38;101691.77;107246;1251;58552;-82
2023/10/02 14:06:46;;;;;;;11.00;2.60;;;;;;;22.81;50.05;101695.60;107188;1243;71831;-83
2023/10/02 14:09:15;;;;;;;9.50;2.90;;;;;;;22.62;50.37;101692.92;107174;1245;71810;-80
2023/10/02 14:11:43;;;;;;;5.90;2.60;;;;;;;22.35;51.52;101695.44;107376;1244;70792;-82
2023/10/02 14:14:12;;;;;;;8.70;2.80;;;;;;;22.36;51.89;101696.77;107292;1249;64311;-83
2023/10/02 14:16:41;;;;;;;8.40;3.50;;;;;;;22.25;52.42;101693.77;107308;1253;59056;-81
2023/10/02 14:19:10;;;;;;;10.60;3.30;;;;;;;22.03;52.77;101695.84;107236;1248;58935;-81
2023/10/02 14:21:39;;;;;;;9.50;2.90;;;;;;;21.86;52.86;101698.64;107333;1242;61505;-80
2023/10/02 14:24:09;;;;;;;8.80;3.10;;;;;;;21.88;53.06;101696.86;107348;1255;72089;-79
